createdAt,value
2022-10-09T00:02:25.121Z,26.02
2022-10-09T00:05:30.552Z,25.23
2022-10-09T00:08:39.713Z,25.55
2022-10-09T00:11:45.212Z,24.17
2022-10-09T00:14:51.072Z,24.88
2022-10-09T00:17:56.754Z,24.52
2022-10-09T00:21:03.021Z,24.95
2022-10-09T00:24:09.611Z,24.25
2022-10-09T00:27:15.042Z,24.65
2022-10-09T00:30:20.278Z,24.38
2022-10-09T00:33:25.660Z,24.95
2022-10-09T00:36:31.294Z,25.05
2022-10-09T00:39:36.527Z,25.05
2022-10-09T00:42:42.138Z,25.02
2022-10-09T00:45:56.372Z,23.23
2022-10-09T00:49:06.495Z,23.25
2022-10-09T00:52:12.149Z,24.57
2022-10-09T00:55:18.415Z,24.98
2022-10-09T00:58:24.873Z,26.35
2022-10-09T01:01:30.438Z,25.13
2022-10-09T01:04:36.294Z,27.63
2022-10-09T01:08:29.317Z,28.48
2022-10-09T01:11:59.431Z,28.40
2022-10-09T01:15:19.938Z,27.17
2022-10-09T01:19:03.964Z,26.58
2022-10-09T01:22:23.929Z,27.48
2022-10-09T01:25:38.225Z,26.98
2022-10-09T01:28:48.544Z,26.80
2022-10-09T01:31:55.505Z,29.13
2022-10-09T01:35:02.528Z,28.80
2022-10-09T01:38:10.162Z,28.13
2022-10-09T01:41:16.722Z,26.88
2022-10-09T01:44:31.032Z,28.35
2022-10-09T01:47:38.431Z,25.50
2022-10-09T01:50:52.569Z,28.88
2022-10-09T01:54:02.123Z,28.65
2022-10-09T01:57:10.783Z,30.00
2022-10-09T02:00:17.299Z,26.58
2022-10-09T02:03:24.961Z,27.73
2022-10-09T02:06:32.774Z,26.55
2022-10-09T02:09:40.742Z,26.88
2022-10-09T02:12:53.141Z,25.25
2022-10-09T02:16:13.881Z,23.83
2022-10-09T02:19:32.675Z,24.80
2022-10-09T02:22:38.409Z,23.17
2022-10-09T02:25:44.040Z,24.13
2022-10-09T02:28:49.614Z,23.55
2022-10-09T02:31:54.703Z,23.23
2022-10-09T02:34:59.805Z,22.33
2022-10-09T02:38:05.395Z,23.13
2022-10-09T02:41:11.023Z,22.60
2022-10-09T02:44:16.438Z,21.35
2022-10-09T02:47:22.041Z,20.73
2022-10-09T02:50:27.588Z,18.45
2022-10-09T02:53:32.797Z,18.25
2022-10-09T02:56:39.318Z,19.55
2022-10-09T02:59:44.942Z,16.58
2022-10-09T03:02:50.552Z,16.33
2022-10-09T03:06:05.374Z,16.80
2022-10-09T03:09:10.754Z,15.32
2022-10-09T03:12:21.372Z,15.57
2022-10-09T03:15:26.940Z,15.38
2022-10-09T03:18:32.418Z,15.73
2022-10-09T03:21:37.808Z,16.85
2022-10-09T03:24:43.228Z,17.50
2022-10-09T03:27:48.875Z,18.35
2022-10-09T03:30:54.748Z,16.98
2022-10-09T03:34:00.086Z,17.95
2022-10-09T03:37:05.544Z,18.45
2022-10-09T03:40:11.267Z,17.92
2022-10-09T03:43:16.769Z,18.63
2022-10-09T03:46:22.254Z,19.60
2022-10-09T03:49:27.603Z,18.60
2022-10-09T03:52:33.244Z,19.17
2022-10-09T03:55:39.607Z,20.52
2022-10-09T03:58:44.979Z,20.55
2022-10-09T04:01:50.719Z,18.73
2022-10-09T04:04:56.025Z,19.27
2022-10-09T04:08:01.790Z,17.80
2022-10-09T04:11:06.982Z,17.70
2022-10-09T04:14:12.450Z,17.30
2022-10-09T04:17:18.162Z,18.60
2022-10-09T04:20:23.916Z,19.65
2022-10-09T04:23:29.524Z,20.13
2022-10-09T04:26:36.623Z,19.50
2022-10-09T04:29:42.567Z,18.80
2022-10-09T04:32:48.780Z,17.60
2022-10-09T04:35:56.265Z,20.23
2022-10-09T04:39:01.965Z,18.80
2022-10-09T04:42:07.657Z,22.10
2022-10-09T04:45:13.153Z,20.15
2022-10-09T04:48:18.589Z,20.75
2022-10-09T04:51:23.792Z,20.08
2022-10-09T04:54:29.221Z,22.65
2022-10-09T04:57:34.827Z,21.80
2022-10-09T05:00:45.904Z,21.73
2022-10-09T05:03:52.322Z,22.85
2022-10-09T05:06:57.783Z,25.00
2022-10-09T05:10:03.073Z,24.10
2022-10-09T05:13:08.707Z,26.70
2022-10-09T05:16:20.335Z,29.70
2022-10-09T05:19:26.172Z,28.52
2022-10-09T05:22:32.129Z,29.67
2022-10-09T05:25:37.662Z,28.48
2022-10-09T05:28:43.727Z,29.55
2022-10-09T05:31:49.850Z,29.83
2022-10-09T05:34:55.773Z,31.95
2022-10-09T05:38:00.882Z,30.50
2022-10-09T05:41:08.322Z,31.77
2022-10-09T05:44:14.063Z,28.75
2022-10-09T05:47:20.253Z,30.13
2022-10-09T05:50:25.901Z,32.42
2022-10-09T05:53:32.592Z,31.30
2022-10-09T05:56:39.566Z,30.30
2022-10-09T05:59:45.007Z,30.98
2022-10-09T06:02:50.548Z,31.65
2022-10-09T06:06:05.529Z,30.65
2022-10-09T06:09:12.504Z,33.55
2022-10-09T06:12:18.044Z,35.58
2022-10-09T06:15:23.797Z,32.17
2022-10-09T06:18:29.450Z,32.60
2022-10-09T06:21:35.275Z,34.22
2022-10-09T06:24:40.928Z,34.25
2022-10-09T06:27:46.834Z,34.22
2022-10-09T06:30:52.410Z,36.25
2022-10-09T06:34:00.125Z,34.92
2022-10-09T06:37:05.492Z,33.60
2022-10-09T06:40:11.011Z,34.30
2022-10-09T06:43:16.194Z,32.90
2022-10-09T06:46:24.306Z,33.65
2022-10-09T06:49:29.771Z,33.75
2022-10-09T06:52:35.566Z,35.45
2022-10-09T06:55:41.000Z,33.78
2022-10-09T06:58:47.270Z,32.03
2022-10-09T07:01:52.907Z,32.72
2022-10-09T07:04:59.162Z,30.77
2022-10-09T07:08:04.946Z,29.25
2022-10-09T07:11:14.704Z,30.30
2022-10-09T07:14:20.369Z,28.35
2022-10-09T07:17:27.135Z,27.90
2022-10-09T07:20:37.069Z,28.65
2022-10-09T07:23:43.787Z,26.17
2022-10-09T07:26:49.839Z,25.85
2022-10-09T07:29:55.806Z,25.20
2022-10-09T07:33:01.373Z,25.05
2022-10-09T07:36:07.258Z,23.38
2022-10-09T07:39:12.743Z,23.08
2022-10-09T07:42:17.512Z,23.77
2022-10-09T07:45:22.984Z,22.38
2022-10-09T07:48:29.187Z,20.33
2022-10-09T07:51:35.065Z,18.40
2022-10-09T07:54:40.482Z,18.33
2022-10-09T07:57:46.246Z,15.13
2022-10-09T08:00:51.695Z,15.48
2022-10-09T08:03:57.836Z,15.18
2022-10-09T08:07:03.301Z,15.13
2022-10-09T08:10:09.095Z,14.98
2022-10-09T08:13:14.206Z,15.23
2022-10-09T08:16:20.855Z,17.00
2022-10-09T08:19:26.728Z,16.98
2022-10-09T08:22:32.267Z,15.57
2022-10-09T08:25:38.798Z,17.65
2022-10-09T08:28:44.844Z,14.00
2022-10-09T08:31:50.524Z,11.77
2022-10-09T08:34:56.142Z,11.88
2022-10-09T08:38:02.146Z,11.55
2022-10-09T08:41:40.144Z,11.50
2022-10-09T08:44:49.493Z,11.98
2022-10-09T08:47:59.416Z,11.80
2022-10-09T08:51:06.187Z,11.40
2022-10-09T08:54:32.934Z,9.75
2022-10-09T08:57:40.339Z,7.05
2022-10-09T09:01:01.125Z,6.53
2022-10-09T09:04:19.294Z,7.32
2022-10-09T09:07:45.448Z,6.85
2022-10-09T09:10:58.401Z,5.97
2022-10-09T09:14:39.753Z,6.00
2022-10-09T09:18:15.977Z,6.38
2022-10-09T09:22:00.743Z,5.90
2022-10-09T09:25:20.349Z,6.15
2022-10-09T09:28:34.950Z,5.75
2022-10-09T09:31:41.649Z,5.70
2022-10-09T09:34:47.819Z,5.68
2022-10-09T09:37:53.922Z,5.78
2022-10-09T09:40:59.483Z,5.88
2022-10-09T09:44:06.575Z,4.82
2022-10-09T09:47:22.817Z,5.00
2022-10-09T09:50:53.136Z,5.50
2022-10-09T09:54:20.732Z,5.40
2022-10-09T09:57:32.930Z,5.60
2022-10-09T10:00:38.227Z,6.38
2022-10-09T10:03:51.998Z,5.63
2022-10-09T10:07:00.011Z,5.25
2022-10-09T10:10:05.876Z,5.80
2022-10-09T10:13:33.232Z,5.05
2022-10-09T10:16:39.615Z,5.78
2022-10-09T10:19:51.206Z,4.78
2022-10-09T10:22:59.087Z,6.50
2022-10-09T10:26:23.657Z,5.38
2022-10-09T10:29:32.003Z,5.88
2022-10-09T10:33:08.152Z,5.72
2022-10-09T10:36:13.582Z,4.88
2022-10-09T10:39:28.934Z,5.68
2022-10-09T10:42:42.936Z,5.00
2022-10-09T10:45:54.277Z,4.72
2022-10-09T10:49:01.469Z,4.95
2022-10-09T10:52:12.761Z,4.30
2022-10-09T10:55:26.511Z,5.22
2022-10-09T10:58:44.435Z,3.78
2022-10-09T11:02:41.232Z,3.92
2022-10-09T11:05:59.745Z,3.58
2022-10-09T11:09:21.291Z,4.68
2022-10-09T11:12:47.738Z,4.82
2022-10-09T11:16:19.341Z,4.93
2022-10-09T11:19:27.548Z,3.60
2022-10-09T11:22:57.715Z,4.47
2022-10-09T11:26:22.204Z,4.55
2022-10-09T11:29:50.577Z,3.30
2022-10-09T11:33:01.570Z,3.35
2022-10-09T11:36:34.332Z,3.92
2022-10-09T11:39:40.219Z,3.30
2022-10-09T11:43:14.532Z,3.55
2022-10-09T11:46:55.025Z,3.08
2022-10-09T11:50:19.260Z,3.50
2022-10-09T11:53:27.914Z,3.50
2022-10-09T11:56:51.987Z,3.53
2022-10-09T12:00:07.962Z,3.70
2022-10-09T12:03:56.491Z,4.25
2022-10-09T12:07:10.042Z,3.85
2022-10-09T12:10:34.249Z,3.95
2022-10-09T12:13:39.466Z,3.10
2022-10-09T12:16:46.703Z,3.45
2022-10-09T12:20:02.059Z,4.25
2022-10-09T12:23:27.686Z,3.97
2022-10-09T12:26:35.948Z,3.50
2022-10-09T12:29:47.807Z,3.95
2022-10-09T12:32:59.083Z,4.68
2022-10-09T12:36:15.896Z,4.90
2022-10-09T12:39:24.804Z,5.22
2022-10-09T12:45:44.025Z,4.57
2022-10-09T12:48:49.344Z,4.63
2022-10-09T12:51:57.425Z,4.68
2022-10-09T12:55:02.938Z,4.88
2022-10-09T12:58:33.465Z,4.10
2022-10-09T13:01:42.058Z,4.87
2022-10-09T13:05:01.334Z,5.45
2022-10-09T13:08:24.135Z,4.55
2022-10-09T13:11:44.152Z,4.15
2022-10-09T13:14:51.929Z,4.13
2022-10-09T13:17:57.624Z,4.28
2022-10-09T13:21:06.557Z,4.82
2022-10-09T13:24:13.668Z,4.50
2022-10-09T13:27:19.842Z,5.00
2022-10-09T13:30:25.892Z,5.30
2022-10-09T13:33:31.406Z,4.93
2022-10-09T13:36:36.836Z,4.35
2022-10-09T13:39:42.950Z,5.75
2022-10-09T13:42:58.013Z,4.95
2022-10-09T13:46:03.278Z,4.85
2022-10-09T13:49:09.072Z,4.20
2022-10-09T13:52:14.635Z,4.55
2022-10-09T13:55:20.051Z,3.75
2022-10-09T13:58:25.386Z,4.38
2022-10-09T14:01:31.203Z,3.90
2022-10-09T14:04:36.688Z,3.95
2022-10-09T14:07:42.308Z,3.17
2022-10-09T14:10:47.457Z,4.20
2022-10-09T14:13:52.907Z,4.55
2022-10-09T14:16:58.481Z,4.13
2022-10-09T14:20:04.465Z,4.10
2022-10-09T14:23:09.774Z,4.30
2022-10-09T14:26:15.272Z,3.83
2022-10-09T14:29:20.536Z,3.72
2022-10-09T14:32:25.676Z,4.53
2022-10-09T14:35:31.034Z,3.67
2022-10-09T14:38:41.142Z,4.30
2022-10-09T14:41:47.063Z,4.13
2022-10-09T14:44:54.338Z,4.00
2022-10-09T14:47:59.773Z,4.05
2022-10-09T14:51:08.403Z,3.78
2022-10-09T14:54:14.361Z,4.20
2022-10-09T14:57:20.060Z,5.85
2022-10-09T15:00:25.932Z,5.53
2022-10-09T15:03:32.022Z,3.80
2022-10-09T15:06:37.918Z,5.22
2022-10-09T15:09:43.640Z,3.97
2022-10-09T15:12:49.136Z,4.13
2022-10-09T15:16:02.303Z,4.72
2022-10-09T15:19:07.855Z,4.13
2022-10-09T15:22:13.093Z,4.75
2022-10-09T15:25:18.486Z,3.85
2022-10-09T15:28:24.796Z,3.47
2022-10-09T15:31:38.589Z,4.43
2022-10-09T15:34:44.259Z,3.42
2022-10-09T15:37:55.847Z,4.07
2022-10-09T15:41:01.836Z,3.97
2022-10-09T15:44:14.460Z,3.72
2022-10-09T15:47:39.323Z,3.63
2022-10-09T15:50:50.647Z,3.80
2022-10-09T15:53:56.560Z,4.20
2022-10-09T15:57:01.437Z,4.63
2022-10-09T16:00:07.810Z,4.25
2022-10-09T16:03:13.194Z,4.53
2022-10-09T16:06:22.563Z,3.83
2022-10-09T16:09:33.678Z,4.00
2022-10-09T16:12:38.849Z,4.63
2022-10-09T16:15:49.685Z,4.10
2022-10-09T16:18:57.023Z,5.20
2022-10-09T16:22:02.191Z,4.45
2022-10-09T16:25:08.195Z,5.43
2022-10-09T16:28:14.333Z,4.88
2022-10-09T16:31:24.423Z,5.43
2022-10-09T16:34:29.791Z,4.70
2022-10-09T16:37:35.455Z,5.20
2022-10-09T16:41:01.291Z,4.90
2022-10-09T16:44:14.599Z,6.43
2022-10-09T16:47:20.007Z,5.38
2022-10-09T16:50:25.987Z,5.47
2022-10-09T16:53:31.333Z,5.60
2022-10-09T16:56:40.373Z,5.07
2022-10-09T16:59:46.759Z,5.40
2022-10-09T17:02:52.228Z,4.90
2022-10-09T17:05:57.744Z,4.78
2022-10-09T17:09:03.927Z,5.85
2022-10-09T17:12:13.387Z,5.78
2022-10-09T17:15:19.010Z,4.78
2022-10-09T17:18:24.707Z,4.85
2022-10-09T17:21:34.430Z,4.38
2022-10-09T17:24:40.308Z,4.55
2022-10-09T17:27:46.316Z,4.90
2022-10-09T17:30:51.919Z,4.32
2022-10-09T17:34:00.374Z,5.22
2022-10-09T17:37:05.663Z,5.10
2022-10-09T17:40:15.644Z,5.95
2022-10-09T17:43:20.961Z,6.07
2022-10-09T17:51:36.119Z,5.18
2022-10-09T17:54:41.558Z,4.72
2022-10-09T17:57:46.972Z,4.85
2022-10-09T18:00:52.686Z,5.60
2022-10-09T18:03:59.125Z,5.50
2022-10-09T18:07:05.538Z,5.20
2022-10-09T18:10:11.007Z,5.63
2022-10-09T18:13:25.340Z,5.25
2022-10-09T18:16:36.359Z,6.00
2022-10-09T18:19:42.521Z,5.30
2022-10-09T18:22:47.976Z,6.10
2022-10-09T18:25:53.869Z,6.47
2022-10-09T18:29:01.361Z,5.45
2022-10-09T18:32:06.855Z,6.63
2022-10-09T18:35:12.466Z,6.05
2022-10-09T18:38:17.740Z,5.82
2022-10-09T18:41:34.120Z,6.63
2022-10-09T18:44:42.178Z,7.00
2022-10-09T18:47:48.102Z,6.13
2022-10-09T18:50:53.892Z,6.78
2022-10-09T18:54:04.022Z,5.97
2022-10-09T18:57:09.835Z,6.28
2022-10-09T19:00:16.603Z,6.60
2022-10-09T19:03:22.830Z,5.72
2022-10-09T19:06:28.512Z,6.53
2022-10-09T19:09:35.664Z,6.25
2022-10-09T19:12:43.925Z,6.63
2022-10-09T19:15:53.776Z,6.72
2022-10-09T19:19:01.178Z,7.15
2022-10-09T19:22:11.674Z,7.03
2022-10-09T19:25:22.008Z,6.45
2022-10-09T19:28:38.923Z,6.75
2022-10-09T19:31:44.883Z,6.47
2022-10-09T19:34:51.506Z,6.38
2022-10-09T19:37:58.532Z,6.93
2022-10-09T19:41:18.084Z,6.20
2022-10-09T19:44:24.156Z,6.43
2022-10-09T19:47:30.906Z,6.13
2022-10-09T19:50:46.262Z,6.82
2022-10-09T19:53:55.255Z,6.78
2022-10-09T19:57:01.654Z,8.52
2022-10-09T20:00:10.398Z,6.95
2022-10-09T20:03:17.463Z,7.50
2022-10-09T20:06:24.161Z,7.85
2022-10-09T20:09:31.547Z,8.73
2022-10-09T20:12:37.687Z,9.43
2022-10-09T20:15:44.392Z,7.35
2022-10-09T20:18:50.491Z,7.60
2022-10-09T20:21:57.108Z,7.88
2022-10-09T20:25:03.251Z,7.82
2022-10-09T20:28:08.723Z,7.05
2022-10-09T20:31:20.959Z,7.18
2022-10-09T20:34:28.228Z,6.45
2022-10-09T20:37:35.473Z,7.13
2022-10-09T20:40:41.501Z,6.20
2022-10-09T20:43:51.565Z,6.40
2022-10-09T20:46:57.226Z,6.72
2022-10-09T20:50:03.293Z,6.40
2022-10-09T20:53:12.339Z,5.43
2022-10-09T20:56:19.034Z,4.70
2022-10-09T20:59:24.408Z,5.63
2022-10-09T21:02:30.029Z,4.95
2022-10-09T21:05:42.744Z,4.95
2022-10-09T21:08:48.842Z,5.40
2022-10-09T21:11:54.473Z,4.68
2022-10-09T21:15:00.110Z,5.15
2022-10-09T21:18:05.554Z,5.38
2022-10-09T21:21:15.493Z,5.43
2022-10-09T21:24:20.721Z,4.75
2022-10-09T21:27:26.738Z,4.70
2022-10-09T21:30:41.297Z,4.78
2022-10-09T21:33:48.106Z,4.78
2022-10-09T21:37:19.821Z,4.40
2022-10-09T21:40:24.225Z,4.30
2022-10-09T21:43:29.928Z,4.30
2022-10-09T21:46:36.757Z,4.03
2022-10-09T21:49:42.271Z,4.18
2022-10-09T21:52:49.637Z,3.83
2022-10-09T21:55:55.707Z,4.75
2022-10-09T21:59:01.380Z,4.28
2022-10-09T22:02:06.606Z,3.70
2022-10-09T22:05:11.845Z,3.55
2022-10-09T22:08:17.366Z,4.50
2022-10-09T22:11:23.181Z,3.70
2022-10-09T22:14:28.795Z,4.10
2022-10-09T22:17:34.754Z,3.67
2022-10-09T22:20:42.550Z,3.63
2022-10-09T22:23:47.846Z,3.20
2022-10-09T22:26:53.366Z,3.28
2022-10-09T22:29:59.120Z,3.85
2022-10-09T22:33:04.564Z,3.53
2022-10-09T22:36:13.683Z,4.57
2022-10-09T22:39:19.166Z,3.35
2022-10-09T22:42:24.603Z,3.38
2022-10-09T22:45:29.948Z,3.35
2022-10-09T22:48:35.696Z,3.35
2022-10-09T22:51:41.957Z,3.58
2022-10-09T22:54:48.025Z,3.10
2022-10-09T22:57:53.584Z,2.95
2022-10-09T23:01:04.162Z,3.78
2022-10-09T23:04:14.851Z,3.22
2022-10-09T23:07:20.660Z,3.47
2022-10-09T23:10:26.297Z,3.20
2022-10-09T23:13:32.353Z,3.30
2022-10-09T23:16:37.687Z,3.45
2022-10-09T23:19:43.088Z,3.20
2022-10-09T23:22:49.016Z,3.45
2022-10-09T23:25:54.777Z,3.40
2022-10-09T23:29:06.715Z,4.18
2022-10-09T23:32:12.005Z,3.47
2022-10-09T23:35:17.703Z,2.92
2022-10-09T23:38:23.654Z,3.08
2022-10-09T23:41:29.441Z,3.42
2022-10-09T23:44:34.545Z,3.10
2022-10-09T23:47:40.907Z,3.45
2022-10-09T23:50:48.928Z,3.08
2022-10-09T23:53:54.980Z,3.10
2022-10-09T23:57:00.649Z,3.15
